Time;durP1;ratioP1;P1;durP2;ratioP2;P2;SDS_P1;SDS_P2;PMS_P1;PMS_P2;Temp;Humidity;BMP_temperature;BMP_pressure;BME280_temperature;BME280_humidity;BME280_pressure;Samples;Min_cycle;Max_cycle;Signal;HPM_P1;HPM_P2
2022/11/27 00:01:46;;;;;;;7.75;2.00;;;;;;;;;;4991060;28;20054;-62
2022/11/27 00:04:16;;;;;;;8.88;1.80;;;;;;;;;;5004736;28;20517;-62
2022/11/27 00:06:46;;;;;;;10.63;1.90;;;;;;;;;;5009237;28;20054;-64
2022/11/27 00:09:16;;;;;;;10.30;2.13;;;;;;;;;;5010353;28;20050;-62
2022/11/27 00:11:47;;;;;;;6.70;2.03;;;;;;;;;;4989048;28;20046;-61
2022/11/27 00:14:17;;;;;;;6.70;2.08;;;;;;;;;;4990285;28;20050;-64
2022/11/27 00:16:49;;;;;;;7.63;2.30;;;;;;;;;;4990149;28;20063;-61
2022/11/27 00:19:19;;;;;;;7.95;1.75;;;;;;;;;;4990934;28;20061;-62
2022/11/27 00:21:49;;;;;;;9.15;1.80;;;;;;;;;;4990587;28;20177;-61
2022/11/27 00:24:19;;;;;;;9.63;2.00;;;;;;;;;;4974406;28;20491;-61
2022/11/27 00:26:49;;;;;;;7.32;1.55;;;;;;;;;;4990696;28;20442;-62
2022/11/27 00:29:19;;;;;;;4.35;1.88;;;;;;;;;;4951611;29;20051;-62
2022/11/27 00:31:49;;;;;;;9.85;1.80;;;;;;;;;;4960928;28;20082;-61
2022/11/27 00:34:19;;;;;;;9.73;1.90;;;;;;;;;;5005391;28;20061;-61
2022/11/27 00:36:49;;;;;;;6.88;1.90;;;;;;;;;;5010248;28;20069;-61
2022/11/27 00:39:20;;;;;;;7.93;2.58;;;;;;;;;;5009814;28;20061;-62
2022/11/27 00:41:49;;;;;;;8.18;1.88;;;;;;;;;;5010214;28;20054;-62
2022/11/27 00:44:20;;;;;;;10.95;2.10;;;;;;;;;;4977306;28;20058;-62
2022/11/27 00:46:49;;;;;;;7.85;2.42;;;;;;;;;;4977370;28;20057;-61
2022/11/27 00:49:20;;;;;;;8.05;1.88;;;;;;;;;;5018756;28;20060;-62
2022/11/27 00:51:49;;;;;;;4.32;1.95;;;;;;;;;;4989276;28;20053;-62
2022/11/27 00:54:19;;;;;;;5.85;1.80;;;;;;;;;;4983986;28;20100;-62
2022/11/27 00:56:50;;;;;;;7.22;1.88;;;;;;;;;;5049614;28;20057;-61
2022/11/27 00:59:20;;;;;;;4.35;2.17;;;;;;;;;;5015590;28;20424;-61
2022/11/27 01:01:50;;;;;;;7.35;1.77;;;;;;;;;;5049384;28;20045;-61
2022/11/27 01:04:21;;;;;;;4.50;2.05;;;;;;;;;;4999919;28;20061;-61
2022/11/27 01:06:51;;;;;;;11.93;1.98;;;;;;;;;;5077347;28;20059;-62
2022/11/27 01:09:21;;;;;;;5.10;1.92;;;;;;;;;;5112350;28;20039;-62
2022/11/27 01:11:51;;;;;;;12.15;3.15;;;;;;;;;;5112142;28;20641;-63
2022/11/27 01:14:21;;;;;;;5.15;2.13;;;;;;;;;;5075833;28;20058;-63
2022/11/27 01:16:51;;;;;;;12.30;2.30;;;;;;;;;;5112139;28;20055;-62
2022/11/27 01:19:23;;;;;;;5.90;1.95;;;;;;;;;;5111561;28;20040;-62
2022/11/27 01:21:53;;;;;;;10.70;2.05;;;;;;;;;;5075924;28;20506;-63
2022/11/27 01:24:23;;;;;;;4.88;1.70;;;;;;;;;;5112100;28;20046;-62
2022/11/27 01:26:54;;;;;;;5.13;1.75;;;;;;;;;;5112100;28;20058;-61
2022/11/27 01:29:24;;;;;;;9.25;2.30;;;;;;;;;;5112114;28;20491;-63
2022/11/27 01:31:54;;;;;;;5.55;2.30;;;;;;;;;;5112058;28;20071;-62
2022/11/27 01:34:24;;;;;;;8.63;2.08;;;;;;;;;;5092753;28;20518;-62
2022/11/27 01:36:54;;;;;;;6.55;1.90;;;;;;;;;;5112007;28;20047;-62
2022/11/27 01:39:24;;;;;;;5.55;1.95;;;;;;;;;;5076518;28;20051;-62
2022/11/27 01:41:55;;;;;;;5.50;2.22;;;;;;;;;;5048380;28;20532;-62
2022/11/27 01:44:26;;;;;;;9.48;2.20;;;;;;;;;;5048467;28;20055;-62
2022/11/27 01:47:02;;;;;;;4.65;2.10;;;;;;;;;;5048649;28;20052;-62
2022/11/27 01:49:32;;;;;;;10.90;2.58;;;;;;;;;;5048314;28;20080;-62
2022/11/27 01:52:34;;;;;;;7.68;2.08;;;;;;;;;;5048567;28;20048;-62
2022/11/27 01:55:19;;;;;;;5.95;2.40;;;;;;;;;;4950240;28;20054;-64
2022/11/27 01:57:59;;;;;;;4.35;1.85;;;;;;;;;;4949958;28;20086;-62
2022/11/27 02:00:30;;;;;;;5.82;1.98;;;;;;;;;;4949930;29;20377;-62
2022/11/27 02:03:00;;;;;;;5.80;1.83;;;;;;;;;;4950362;29;20059;-63
2022/11/27 02:05:30;;;;;;;7.13;1.67;;;;;;;;;;4950318;29;20063;-61
2022/11/27 02:08:09;;;;;;;4.38;1.55;;;;;;;;;;4918468;29;20070;-61
2022/11/27 02:10:58;;;;;;;7.05;2.03;;;;;;;;;;4911901;29;20059;-62
2022/11/27 02:13:54;;;;;;;6.75;1.92;;;;;;;;;;4911597;29;20067;-61
2022/11/27 02:16:36;;;;;;;2.83;0.88;;;;;;;;;;4865293;29;20075;-62
2022/11/27 02:19:27;;;;;;;3.47;1.58;;;;;;;;;;4917401;29;20060;-62
2022/11/27 02:22:18;;;;;;;4.70;1.48;;;;;;;;;;4930401;29;20052;-62
2022/11/27 02:25:06;;;;;;;;;;;;;;;;;;4884229;29;20075;-62
2022/11/27 02:27:54;;;;;;;5.65;1.42;;;;;;;;;;4931089;29;19930;-62
2022/11/27 02:30:25;;;;;;;3.92;1.00;;;;;;;;;;4930017;29;20059;-62
2022/11/27 02:32:58;;;;;;;2.28;1.02;;;;;;;;;;5019703;28;20072;-62
2022/11/27 02:35:39;;;;;;;8.93;1.05;;;;;;;;;;5027664;28;20057;-61
2022/11/27 02:38:14;;;;;;;4.95;0.73;;;;;;;;;;5047633;28;20056;-61
2022/11/27 02:41:04;;;;;;;5.35;0.90;;;;;;;;;;5018256;28;20061;-62
2022/11/27 02:43:41;;;;;;;3.22;0.70;;;;;;;;;;5017910;28;20060;-63
2022/11/27 02:46:13;;;;;;;1.90;0.52;;;;;;;;;;5067831;28;20049;-61
2022/11/27 02:48:54;;;;;;;4.65;0.90;;;;;;;;;;5096316;28;20404;-61
2022/11/27 02:51:47;;;;;;;3.97;0.90;;;;;;;;;;5111125;28;20530;-61
2022/11/27 02:54:24;;;;;;;3.58;0.65;;;;;;;;;;5027731;28;20049;-62
2022/11/27 02:56:56;;;;;;;1.80;0.65;;;;;;;;;;5027574;28;20054;-62
2022/11/27 02:59:30;;;;;;;2.67;0.90;;;;;;;;;;5027559;28;20064;-62
2022/11/27 03:02:11;;;;;;;3.03;0.70;;;;;;;;;;5027470;28;20064;-62
2022/11/27 03:04:48;;;;;;;2.00;0.80;;;;;;;;;;5011135;28;20060;-62
2022/11/27 03:07:30;;;;;;;2.17;0.93;;;;;;;;;;5027749;28;20060;-62
2022/11/27 03:10:07;;;;;;;4.32;1.13;;;;;;;;;;5027731;28;20899;-62
2022/11/27 03:12:38;;;;;;;5.55;1.00;;;;;;;;;;5010894;28;20061;-63
2022/11/27 03:15:09;;;;;;;2.67;0.60;;;;;;;;;;4963032;28;20507;-62
2022/11/27 03:17:56;;;;;;;2.53;0.80;;;;;;;;;;4978647;28;20073;-64
2022/11/27 03:20:32;;;;;;;3.40;0.90;;;;;;;;;;4994950;28;20041;-62
2022/11/27 03:23:02;;;;;;;2.38;0.70;;;;;;;;;;5027505;28;20409;-64
2022/11/27 03:25:33;;;;;;;5.00;0.98;;;;;;;;;;5027301;28;20054;-62
2022/11/27 03:28:07;;;;;;;2.97;1.02;;;;;;;;;;5027523;28;20064;-63
2022/11/27 03:30:40;;;;;;;1.98;0.98;;;;;;;;;;5000847;28;20052;-62
2022/11/27 03:33:11;;;;;;;4.00;0.75;;;;;;;;;;5067483;28;20059;-63
2022/11/27 03:35:42;;;;;;;2.78;0.98;;;;;;;;;;5046833;28;20452;-63
2022/11/27 03:38:12;;;;;;;2.20;1.00;;;;;;;;;;5013860;28;20436;-62
2022/11/27 03:41:03;;;;;;;3.08;0.85;;;;;;;;;;5014689;28;20060;-62
2022/11/27 03:43:44;;;;;;;2.85;1.00;;;;;;;;;;5050938;28;20168;-63
2022/11/27 03:46:29;;;;;;;2.47;0.68;;;;;;;;;;5050634;28;20408;-62
2022/11/27 03:49:13;;;;;;;4.75;0.73;;;;;;;;;;5050669;28;20154;-62
2022/11/27 03:51:57;;;;;;;4.20;1.00;;;;;;;;;;4997739;28;20049;-62
2022/11/27 03:54:51;;;;;;;3.25;0.73;;;;;;;;;;4997390;28;20056;-64
2022/11/27 03:57:35;;;;;;;3.90;0.60;;;;;;;;;;4996966;28;20065;-62
2022/11/27 04:00:08;;;;;;;3.63;1.00;;;;;;;;;;4997798;28;20053;-63
2022/11/27 04:02:50;;;;;;;1.98;0.77;;;;;;;;;;5030501;28;20062;-62
2022/11/27 04:05:21;;;;;;;2.05;0.77;;;;;;;;;;5030552;28;20513;-62
2022/11/27 04:07:51;;;;;;;2.10;0.73;;;;;;;;;;5030225;28;20053;-63
2022/11/27 04:10:22;;;;;;;2.70;0.82;;;;;;;;;;5014047;28;20068;-62
2022/11/27 04:12:51;;;;;;;5.18;0.80;;;;;;;;;;5003103;28;20060;-62
2022/11/27 04:15:22;;;;;;;6.05;0.77;;;;;;;;;;5016649;28;20496;-62
2022/11/27 04:17:51;;;;;;;1.77;0.70;;;;;;;;;;5000506;28;20064;-62
2022/11/27 04:20:21;;;;;;;2.33;0.80;;;;;;;;;;5001153;28;20444;-62
2022/11/27 04:22:51;;;;;;;4.82;0.88;;;;;;;;;;5016729;28;20059;-62
2022/11/27 04:25:22;;;;;;;3.75;1.42;;;;;;;;;;4999421;28;20697;-62
2022/11/27 04:27:52;;;;;;;2.90;0.70;;;;;;;;;;5049903;28;20052;-63
2022/11/27 04:30:22;;;;;;;2.20;0.70;;;;;;;;;;5106856;28;20052;-61
2022/11/27 04:32:53;;;;;;;4.28;0.80;;;;;;;;;;5069603;28;20053;-62
2022/11/27 04:35:23;;;;;;;3.22;0.80;;;;;;;;;;5070049;28;20590;-62
2022/11/27 04:37:53;;;;;;;5.43;0.70;;;;;;;;;;5069525;28;20060;-62
2022/11/27 04:40:24;;;;;;;4.95;0.80;;;;;;;;;;5070014;28;20052;-62
2022/11/27 04:42:54;;;;;;;2.60;0.63;;;;;;;;;;5069912;28;20044;-62
2022/11/27 04:45:24;;;;;;;5.20;0.60;;;;;;;;;;5069809;28;20072;-64
2022/11/27 04:47:54;;;;;;;2.90;0.95;;;;;;;;;;5009773;28;20050;-62
2022/11/27 04:50:24;;;;;;;2.92;0.80;;;;;;;;;;5009810;28;20057;-62
2022/11/27 04:52:54;;;;;;;3.40;0.68;;;;;;;;;;5009485;28;20493;-62
2022/11/27 04:55:24;;;;;;;1.75;0.55;;;;;;;;;;4961172;28;20054;-62
2022/11/27 04:57:54;;;;;;;4.80;0.70;;;;;;;;;;4953923;28;20054;-63
2022/11/27 05:00:24;;;;;;;3.22;0.60;;;;;;;;;;4970893;28;20062;-62
2022/11/27 05:02:54;;;;;;;4.07;0.80;;;;;;;;;;4970697;28;20055;-62
2022/11/27 05:05:24;;;;;;;3.42;0.70;;;;;;;;;;4916046;29;20052;-62
2022/11/27 05:07:55;;;;;;;1.60;0.80;;;;;;;;;;4932209;29;20062;-63
2022/11/27 05:10:25;;;;;;;2.65;0.85;;;;;;;;;;4949692;28;20542;-62
2022/11/27 05:12:56;;;;;;;2.45;0.60;;;;;;;;;;4970609;28;20063;-63
2022/11/27 05:15:26;;;;;;;3.95;0.82;;;;;;;;;;4953976;28;20047;-63
2022/11/27 05:17:57;;;;;;;2.70;0.60;;;;;;;;;;4938239;28;20051;-63
2022/11/27 05:20:27;;;;;;;2.35;0.65;;;;;;;;;;4950756;28;20058;-64
2022/11/27 05:22:57;;;;;;;6.30;0.80;;;;;;;;;;4951088;28;20062;-63
2022/11/27 05:25:27;;;;;;;5.13;1.05;;;;;;;;;;4936585;28;21188;-62
2022/11/27 05:27:58;;;;;;;3.10;0.60;;;;;;;;;;4957345;28;20054;-63
2022/11/27 05:30:28;;;;;;;3.17;0.52;;;;;;;;;;4989326;28;20499;-65
2022/11/27 05:32:58;;;;;;;3.63;0.88;;;;;;;;;;4985803;28;20050;-63
2022/11/27 05:35:28;;;;;;;5.82;0.98;;;;;;;;;;4980513;28;20058;-63
2022/11/27 05:37:58;;;;;;;3.10;0.80;;;;;;;;;;5028435;28;20053;-64
2022/11/27 05:40:28;;;;;;;3.33;0.75;;;;;;;;;;5028687;28;20558;-63
2022/11/27 05:42:58;;;;;;;4.60;0.80;;;;;;;;;;5028825;28;20049;-63
2022/11/27 05:45:28;;;;;;;3.13;0.70;;;;;;;;;;5028510;28;20053;-62
2022/11/27 05:47:57;;;;;;;2.50;0.70;;;;;;;;;;4995964;28;20829;-63
2022/11/27 05:50:27;;;;;;;2.42;0.52;;;;;;;;;;5011716;28;20062;-62
2022/11/27 05:52:59;;;;;;;2.15;0.80;;;;;;;;;;5028336;28;20078;-63
2022/11/27 05:55:29;;;;;;;2.88;0.68;;;;;;;;;;5028290;28;20060;-62
2022/11/27 05:57:59;;;;;;;3.50;0.57;;;;;;;;;;5037077;28;20056;-62
2022/11/27 06:00:30;;;;;;;2.33;0.93;;;;;;;;;;5048077;28;20068;-62
2022/11/27 06:03:00;;;;;;;3.88;0.82;;;;;;;;;;5048530;28;20057;-65
2022/11/27 06:05:30;;;;;;;1.77;0.82;;;;;;;;;;5047327;28;20055;-64
2022/11/27 06:07:59;;;;;;;3.47;0.75;;;;;;;;;;5031497;28;20070;-62
2022/11/27 06:10:30;;;;;;;2.78;0.60;;;;;;;;;;5033136;28;20055;-63
2022/11/27 06:13:00;;;;;;;3.45;0.70;;;;;;;;;;5048021;28;20045;-62
2022/11/27 06:15:30;;;;;;;2.33;0.70;;;;;;;;;;5031780;28;20068;-62
2022/11/27 06:18:00;;;;;;;4.75;0.70;;;;;;;;;;4991598;28;20533;-62
2022/11/27 06:20:31;;;;;;;1.63;0.52;;;;;;;;;;4975768;28;20064;-64
2022/11/27 06:23:01;;;;;;;1.52;0.50;;;;;;;;;;5008358;28;20510;-64
2022/11/27 06:25:31;;;;;;;4.15;0.70;;;;;;;;;;5008104;28;20069;-62
2022/11/27 06:28:02;;;;;;;1.73;0.55;;;;;;;;;;5008407;28;20053;-62
2022/11/27 06:30:32;;;;;;;1.38;0.55;;;;;;;;;;5008083;28;20058;-62
2022/11/27 06:33:02;;;;;;;1.67;0.60;;;;;;;;;;5017128;28;20057;-63
2022/11/27 06:35:32;;;;;;;1.60;0.57;;;;;;;;;;5011407;28;20529;-63
2022/11/27 06:38:02;;;;;;;2.65;0.68;;;;;;;;;;5028005;28;20535;-63
2022/11/27 06:40:32;;;;;;;3.80;0.60;;;;;;;;;;5027898;28;20042;-63
2022/11/27 06:43:02;;;;;;;3.10;0.80;;;;;;;;;;4978693;28;20778;-63
2022/11/27 06:45:32;;;;;;;2.10;0.50;;;;;;;;;;5011450;28;20065;-63
2022/11/27 06:48:02;;;;;;;2.00;0.50;;;;;;;;;;5027724;28;20117;-63
2022/11/27 06:50:32;;;;;;;2.58;0.60;;;;;;;;;;5013103;28;20052;-62
2022/11/27 06:53:03;;;;;;;2.28;0.50;;;;;;;;;;5017962;28;20057;-62
2022/11/27 06:55:32;;;;;;;2.70;0.65;;;;;;;;;;5052823;28;20499;-63
2022/11/27 06:58:02;;;;;;;2.40;0.68;;;;;;;;;;5074301;28;20060;-63
2022/11/27 07:00:32;;;;;;;2.13;0.50;;;;;;;;;;5042816;28;20055;-63
2022/11/27 07:03:02;;;;;;;2.05;0.63;;;;;;;;;;5109325;28;20514;-63
2022/11/27 07:05:33;;;;;;;2.33;0.52;;;;;;;;;;5057908;28;20063;-63
2022/11/27 07:08:03;;;;;;;2.63;1.45;;;;;;;;;;5074604;28;20419;-63
2022/11/27 07:10:35;;;;;;;2.92;0.60;;;;;;;;;;5110814;28;20058;-63
2022/11/27 07:13:05;;;;;;;1.67;0.90;;;;;;;;;;5110166;28;20043;-63
2022/11/27 07:15:35;;;;;;;2.45;0.73;;;;;;;;;;5074978;28;20388;-63
2022/11/27 07:18:05;;;;;;;2.17;0.70;;;;;;;;;;5114491;28;20055;-63
2022/11/27 07:20:36;;;;;;;3.60;0.73;;;;;;;;;;5017966;28;21010;-62
2022/11/27 07:23:06;;;;;;;1.77;0.60;;;;;;;;;;5051266;28;20536;-63
2022/11/27 07:25:37;;;;;;;3.13;0.98;;;;;;;;;;5051350;28;20057;-62
2022/11/27 07:28:08;;;;;;;2.63;0.90;;;;;;;;;;5051180;28;20056;-62
2022/11/27 07:30:52;;;;;;;4.72;1.30;;;;;;;;;;5051003;28;20049;-64
2022/11/27 07:33:23;;;;;;;4.25;0.93;;;;;;;;;;4985945;28;20057;-62
2022/11/27 07:36:21;;;;;;;4.28;1.20;;;;;;;;;;5067727;28;20049;-63
2022/11/27 07:38:51;;;;;;;4.45;1.65;;;;;;;;;;4991630;28;20062;-62
2022/11/27 07:41:22;;;;;;;3.50;1.25;;;;;;;;;;4991572;28;20086;-62
2022/11/27 07:43:54;;;;;;;3.45;1.40;;;;;;;;;;4991667;28;20057;-63
2022/11/27 07:46:24;;;;;;;5.18;1.20;;;;;;;;;;4991499;28;20054;-62
2022/11/27 07:48:54;;;;;;;8.75;1.80;;;;;;;;;;4991512;28;20497;-63
2022/11/27 07:51:24;;;;;;;3.40;1.42;;;;;;;;;;4975018;28;20046;-62
2022/11/27 07:53:55;;;;;;;6.30;1.40;;;;;;;;;;4991473;28;20059;-63
2022/11/27 07:56:26;;;;;;;3.63;1.05;;;;;;;;;;4958890;28;20065;-63
2022/11/27 07:58:57;;;;;;;3.53;1.33;;;;;;;;;;5005536;28;20054;-62
2022/11/27 08:01:28;;;;;;;3.35;1.10;;;;;;;;;;5014542;28;20536;-62
2022/11/27 08:03:58;;;;;;;6.70;1.20;;;;;;;;;;5030634;28;20053;-64
2022/11/27 08:06:28;;;;;;;3.40;1.05;;;;;;;;;;5030652;28;20056;-63
2022/11/27 08:08:58;;;;;;;17.98;1.83;;;;;;;;;;5030436;28;20062;-62
2022/11/27 08:11:34;;;;;;;3.55;1.15;;;;;;;;;;5014245;28;20057;-63
2022/11/27 08:14:06;;;;;;;4.65;1.10;;;;;;;;;;5030410;28;20060;-62
2022/11/27 08:16:36;;;;;;;4.82;1.25;;;;;;;;;;5047488;28;20504;-63
2022/11/27 08:19:07;;;;;;;7.20;1.85;;;;;;;;;;5090542;28;20051;-63
2022/11/27 08:21:37;;;;;;;5.95;1.45;;;;;;;;;;5090219;28;20518;-62
2022/11/27 08:24:07;;;;;;;4.32;1.25;;;;;;;;;;5090504;28;20052;-64
2022/11/27 08:26:37;;;;;;;4.97;1.70;;;;;;;;;;5069546;28;20193;-63
2022/11/27 08:29:10;;;;;;;4.15;1.65;;;;;;;;;;5009431;28;20060;-62
2022/11/27 08:31:40;;;;;;;11.02;1.50;;;;;;;;;;4990630;28;20058;-63
2022/11/27 08:34:10;;;;;;;8.43;1.30;;;;;;;;;;4974549;28;21324;-62
2022/11/27 08:36:40;;;;;;;3.85;0.82;;;;;;;;;;4974218;28;20054;-62
2022/11/27 08:39:10;;;;;;;11.43;1.63;;;;;;;;;;4974190;28;20063;-63
2022/11/27 08:41:40;;;;;;;5.70;1.35;;;;;;;;;;4990333;28;20120;-62
2022/11/27 08:44:11;;;;;;;4.32;1.25;;;;;;;;;;4990650;28;20070;-63
2022/11/27 08:46:42;;;;;;;8.98;1.25;;;;;;;;;;4974290;28;20061;-62
2022/11/27 08:49:12;;;;;;;4.20;1.40;;;;;;;;;;4990198;28;20055;-62
2022/11/27 08:51:42;;;;;;;5.38;1.23;;;;;;;;;;5005957;28;20050;-63
2022/11/27 08:54:13;;;;;;;4.10;1.25;;;;;;;;;;4990098;28;20066;-63
2022/11/27 08:56:43;;;;;;;3.75;1.27;;;;;;;;;;4989970;28;20057;-63
2022/11/27 08:59:13;;;;;;;4.03;1.45;;;;;;;;;;4989726;28;20061;-62
2022/11/27 09:01:44;;;;;;;7.65;1.92;;;;;;;;;;4990104;28;20528;-63
2022/11/27 09:04:13;;;;;;;6.75;1.40;;;;;;;;;;4957696;28;20161;-63
2022/11/27 09:06:44;;;;;;;3.05;1.10;;;;;;;;;;4999512;28;20092;-63
2022/11/27 09:09:15;;;;;;;3.03;1.23;;;;;;;;;;5036929;28;20056;-62
2022/11/27 09:11:45;;;;;;;4.10;1.70;;;;;;;;;;5019434;28;20635;-62
2022/11/27 09:14:15;;;;;;;6.78;1.70;;;;;;;;;;5068966;28;20416;-63
2022/11/27 09:16:45;;;;;;;4.68;1.30;;;;;;;;;;5069150;28;20060;-63
2022/11/27 09:19:16;;;;;;;5.75;1.48;;;;;;;;;;5019157;28;20142;-63
2022/11/27 09:21:45;;;;;;;5.93;2.03;;;;;;;;;;5003493;28;20797;-63
2022/11/27 09:24:15;;;;;;;7.22;1.33;;;;;;;;;;5028693;28;20426;-62
2022/11/27 09:26:45;;;;;;;4.00;1.42;;;;;;;;;;4980024;28;20061;-63
2022/11/27 09:29:15;;;;;;;4.93;1.30;;;;;;;;;;5029012;28;20061;-63
2022/11/27 09:31:45;;;;;;;5.35;1.20;;;;;;;;;;5028904;28;20045;-62
2022/11/27 09:34:15;;;;;;;6.60;1.58;;;;;;;;;;5046769;28;20052;-62
2022/11/27 09:36:46;;;;;;;3.70;1.27;;;;;;;;;;5068767;28;20056;-62
2022/11/27 09:39:18;;;;;;;6.78;1.40;;;;;;;;;;5031109;28;20417;-61
2022/11/27 09:41:57;;;;;;;5.45;1.95;;;;;;;;;;5028544;28;20472;-62
2022/11/27 09:44:51;;;;;;;4.25;1.17;;;;;;;;;;4996528;28;20069;-62
2022/11/27 09:47:29;;;;;;;3.22;1.05;;;;;;;;;;5028505;28;20073;-62
2022/11/27 09:50:20;;;;;;;6.10;1.40;;;;;;;;;;5028375;28;20069;-63
2022/11/27 09:53:00;;;;;;;2.88;1.00;;;;;;;;;;5028296;28;20057;-62
2022/11/27 09:55:43;;;;;;;3.20;1.30;;;;;;;;;;5028736;28;20057;-63
2022/11/27 09:58:23;;;;;;;3.13;1.08;;;;;;;;;;5027978;28;20050;-62
2022/11/27 10:00:53;;;;;;;6.28;1.38;;;;;;;;;;5008497;28;20045;-63
2022/11/27 10:03:27;;;;;;;6.18;1.10;;;;;;;;;;5005469;28;20557;-62
2022/11/27 10:06:19;;;;;;;5.85;1.15;;;;;;;;;;4989001;28;20061;-62
2022/11/27 10:09:16;;;;;;;6.25;1.20;;;;;;;;;;4972858;28;20501;-62
2022/11/27 10:12:09;;;;;;;2.38;0.75;;;;;;;;;;4972733;28;20546;-62
2022/11/27 10:15:06;;;;;;;2.05;0.73;;;;;;;;;;4988647;28;20539;-62
2022/11/27 10:17:47;;;;;;;2.08;0.60;;;;;;;;;;5004271;28;20065;-62
2022/11/27 10:20:28;;;;;;;3.85;1.30;;;;;;;;;;5008466;28;20048;-61
2022/11/27 10:23:36;;;;;;;3.83;1.25;;;;;;;;;;5047789;28;20412;-63
2022/11/27 10:26:22;;;;;;;1.17;0.55;;;;;;;;;;5025341;28;20556;-61
2022/11/27 10:29:30;;;;;;;2.83;0.63;;;;;;;;;;5028154;28;20037;-60
2022/11/27 10:32:12;;;;;;;1.98;0.55;;;;;;;;;;5027925;28;20054;-62
2022/11/27 10:35:11;;;;;;;6.50;0.80;;;;;;;;;;5027953;28;20056;-62
2022/11/27 10:37:44;;;;;;;;;;;;;;;;;;5028166;28;20061;-62
2022/11/27 10:40:19;;;;;;;1.23;0.52;;;;;;;;;;5027813;28;19921;-63
2022/11/27 10:43:16;;;;;;;1.33;0.80;;;;;;;;;;5011190;28;20404;-62
2022/11/27 10:46:22;;;;;;;1.38;0.57;;;;;;;;;;5027875;28;20045;-63
2022/11/27 10:48:53;;;;;;;1.00;0.50;;;;;;;;;;4955931;28;20533;-62
2022/11/27 10:51:37;;;;;;;3.33;0.60;;;;;;;;;;4967899;28;20396;-62
2022/11/27 10:54:20;;;;;;;0.80;0.60;;;;;;;;;;4972593;28;20039;-62
2022/11/27 10:57:11;;;;;;;1.48;0.63;;;;;;;;;;4998950;28;20490;-62
2022/11/27 11:00:13;;;;;;;1.45;0.65;;;;;;;;;;5015177;28;20061;-63
2022/11/27 11:02:45;;;;;;;1.80;0.40;;;;;;;;;;4953347;29;20067;-63
2022/11/27 11:05:22;;;;;;;0.98;0.50;;;;;;;;;;4952623;29;20074;-62
2022/11/27 11:08:20;;;;;;;1.00;0.32;;;;;;;;;;4926410;29;20056;-62
2022/11/27 11:11:09;;;;;;;1.83;0.40;;;;;;;;;;4920876;29;20059;-64
2022/11/27 11:13:39;;;;;;;1.83;0.60;;;;;;;;;;4951899;29;20055;-62
2022/11/27 11:16:22;;;;;;;0.88;0.50;;;;;;;;;;4952671;29;20058;-63
2022/11/27 11:18:56;;;;;;;0.80;0.45;;;;;;;;;;4951534;29;20511;-63
2022/11/27 11:21:33;;;;;;;;;;;;;;;;;;4952768;29;20070;-62
2022/11/27 11:24:03;;;;;;;;;;;;;;;;;;4920903;29;19927;-62
2022/11/27 11:26:35;;;;;;;0.63;0.30;;;;;;;;;;4991735;28;20377;-63
2022/11/27 11:29:32;;;;;;;4.05;2.08;;;;;;;;;;4975588;28;20131;-62
2022/11/27 11:32:27;;;;;;;2.25;1.00;;;;;;;;;;4902158;29;20051;-63
2022/11/27 11:35:23;;;;;;;9.32;5.63;;;;;;;;;;4917933;29;20095;-62
2022/11/27 11:37:55;;;;;;;4.68;1.75;;;;;;;;;;4902274;29;20079;-62
2022/11/27 11:40:30;;;;;;;1.77;1.02;;;;;;;;;;4990351;28;20050;-63
2022/11/27 11:43:05;;;;;;;0.90;0.50;;;;;;;;;;5010692;28;20073;-63
2022/11/27 11:45:45;;;;;;;2.53;0.35;;;;;;;;;;5011125;28;20054;-61
2022/11/27 11:48:26;;;;;;;2.17;0.50;;;;;;;;;;5011280;28;20049;-61
2022/11/27 11:50:56;;;;;;;2.00;0.43;;;;;;;;;;5010611;28;20037;-62
2022/11/27 11:53:36;;;;;;;0.70;0.40;;;;;;;;;;4978121;28;20057;-63
2022/11/27 11:56:18;;;;;;;1.77;0.60;;;;;;;;;;4962364;28;20053;-63
2022/11/27 11:59:02;;;;;;;1.23;0.45;;;;;;;;;;4986164;28;20072;-62
2022/11/27 12:01:32;;;;;;;1.48;0.60;;;;;;;;;;4997795;28;20506;-63
2022/11/27 12:04:12;;;;;;;1.73;0.50;;;;;;;;;;5030758;28;20049;-63
2022/11/27 12:06:55;;;;;;;1.40;1.00;;;;;;;;;;5030634;28;20428;-63
2022/11/27 12:09:56;;;;;;;1.20;0.52;;;;;;;;;;5080960;28;20062;-62
2022/11/27 12:12:55;;;;;;;1.98;0.30;;;;;;;;;;5077615;28;20051;-63
2022/11/27 12:15:53;;;;;;;1.02;0.73;;;;;;;;;;5077347;28;20047;-63
2022/11/27 12:18:35;;;;;;;1.02;0.40;;;;;;;;;;5113153;28;20499;-63
2022/11/27 12:21:20;;;;;;;3.63;1.33;;;;;;;;;;5070091;28;20484;-62
2022/11/27 12:23:56;;;;;;;1.20;0.40;;;;;;;;;;5070163;28;20059;-63
2022/11/27 12:26:39;;;;;;;8.40;5.88;;;;;;;;;;5070229;28;20052;-63
2022/11/27 12:29:37;;;;;;;1.73;0.88;;;;;;;;;;5049722;28;20053;-62
2022/11/27 12:32:36;;;;;;;1.52;0.60;;;;;;;;;;5050105;28;20064;-63
2022/11/27 12:35:31;;;;;;;2.08;1.00;;;;;;;;;;5009869;28;20057;-62
2022/11/27 12:38:01;;;;;;;1.60;0.55;;;;;;;;;;5010090;28;20069;-63
2022/11/27 12:40:58;;;;;;;0.70;0.40;;;;;;;;;;5010492;28;20560;-62
2022/11/27 12:43:32;;;;;;;2.55;0.52;;;;;;;;;;4904558;29;20059;-62
2022/11/27 12:46:36;;;;;;;2.05;0.80;;;;;;;;;;4932132;29;20492;-61
2022/11/27 12:49:21;;;;;;;3.90;2.00;;;;;;;;;;4857201;29;20061;-63
2022/11/27 12:52:02;;;;;;;2.20;0.80;;;;;;;;;;4857639;29;20061;-64
2022/11/27 12:54:46;;;;;;;0.85;0.40;;;;;;;;;;4841798;29;20062;-63
2022/11/27 12:57:24;;;;;;;1.77;0.95;;;;;;;;;;4857634;29;20061;-64
2022/11/27 12:59:58;;;;;;;2.35;0.95;;;;;;;;;;4886471;29;20070;-63
2022/11/27 13:02:53;;;;;;;7.80;3.72;;;;;;;;;;4913242;29;20063;-63
2022/11/27 13:05:27;;;;;;;4.65;2.72;;;;;;;;;;4913145;29;20149;-62
2022/11/27 13:08:15;;;;;;;3.08;1.25;;;;;;;;;;4912849;29;20584;-65
2022/11/27 13:11:00;;;;;;;2.15;0.93;;;;;;;;;;4912954;29;20064;-63
2022/11/27 13:13:39;;;;;;;2.83;1.10;;;;;;;;;;4912128;29;20063;-63
2022/11/27 13:16:18;;;;;;;2.60;1.33;;;;;;;;;;4912969;29;20064;-65
2022/11/27 13:19:11;;;;;;;;;;;;;;;;;;4913590;29;20056;-63
2022/11/27 13:21:44;;;;;;;1.73;0.90;;;;;;;;;;4989998;28;19922;-62
2022/11/27 13:24:15;;;;;;;1.95;1.00;;;;;;;;;;5019091;28;20068;-62
2022/11/27 13:27:06;;;;;;;1.67;0.43;;;;;;;;;;5029140;28;20056;-64
2022/11/27 13:29:45;;;;;;;6.88;3.95;;;;;;;;;;5048835;28;20057;-63
2022/11/27 13:32:36;;;;;;;2.33;0.73;;;;;;;;;;5049047;28;20067;-63
2022/11/27 13:35:35;;;;;;;0.70;0.40;;;;;;;;;;5015660;28;20053;-63
2022/11/27 13:38:25;;;;;;;1.65;0.25;;;;;;;;;;4954248;28;20050;-63
2022/11/27 13:40:57;;;;;;;0.75;0.30;;;;;;;;;;4938084;28;20051;-63
2022/11/27 13:43:33;;;;;;;;;;;;;;;;;;4908612;28;20054;-62
2022/11/27 13:46:10;;;;;;;3.35;2.25;;;;;;;;;;4969987;28;20349;-62
2022/11/27 13:48:47;;;;;;;6.72;4.60;;;;;;;;;;4969799;28;20054;-63
2022/11/27 13:51:33;;;;;;;1.65;0.70;;;;;;;;;;4930564;29;20496;-65
2022/11/27 13:54:13;;;;;;;3.63;2.55;;;;;;;;;;4946696;29;20428;-63
2022/11/27 13:56:44;;;;;;;2.30;1.10;;;;;;;;;;4915753;29;20115;-63
2022/11/27 13:59:17;;;;;;;0.40;0.40;;;;;;;;;;4947346;29;20058;-62
2022/11/27 14:02:13;;;;;;;1.55;0.98;;;;;;;;;;4931193;29;20060;-62
2022/11/27 14:04:51;;;;;;;1.73;0.85;;;;;;;;;;4885753;29;20631;-62
2022/11/27 14:07:55;;;;;;;0.57;0.30;;;;;;;;;;4931191;29;20051;-62
2022/11/27 14:10:31;;;;;;;0.90;0.30;;;;;;;;;;4855871;29;20062;-62
2022/11/27 14:13:07;;;;;;;3.30;0.30;;;;;;;;;;4855519;29;20061;-64
2022/11/27 14:15:39;;;;;;;3.45;0.60;;;;;;;;;;4893616;29;20451;-61
2022/11/27 14:18:09;;;;;;;1.23;0.82;;;;;;;;;;4912125;29;20735;-62
2022/11/27 14:20:57;;;;;;;1.38;0.60;;;;;;;;;;4895837;29;20055;-62
2022/11/27 14:23:31;;;;;;;0.98;0.70;;;;;;;;;;4895964;29;20180;-62
2022/11/27 14:26:21;;;;;;;0.60;0.40;;;;;;;;;;4880119;29;20468;-64
2022/11/27 14:28:54;;;;;;;0.57;0.30;;;;;;;;;;4898965;29;20539;-63
2022/11/27 14:31:36;;;;;;;3.10;0.52;;;;;;;;;;4930844;29;20062;-62
2022/11/27 14:34:25;;;;;;;1.83;0.80;;;;;;;;;;4930765;29;20063;-62
2022/11/27 14:36:56;;;;;;;2.33;0.43;;;;;;;;;;4930935;29;20056;-62
2022/11/27 14:39:36;;;;;;;1.80;0.50;;;;;;;;;;4914664;29;20056;-62
2022/11/27 14:42:22;;;;;;;0.65;0.30;;;;;;;;;;4970285;28;20058;-63
2022/11/27 14:45:12;;;;;;;0.70;0.40;;;;;;;;;;4988690;28;20058;-63
2022/11/27 14:47:49;;;;;;;3.80;1.10;;;;;;;;;;5028978;28;20496;-63
2022/11/27 14:50:21;;;;;;;2.38;0.57;;;;;;;;;;5067434;28;20408;-62
2022/11/27 14:52:55;;;;;;;2.00;1.00;;;;;;;;;;5034180;28;20044;-63
2022/11/27 14:55:27;;;;;;;5.07;1.02;;;;;;;;;;5019014;28;20420;-63
2022/11/27 14:58:03;;;;;;;1.58;0.90;;;;;;;;;;5084585;28;20411;-63
2022/11/27 15:00:33;;;;;;;2.67;0.40;;;;;;;;;;5110834;28;20048;-64
2022/11/27 15:03:10;;;;;;;1.00;0.50;;;;;;;;;;5110681;28;20050;-64
2022/11/27 15:05:49;;;;;;;0.60;0.30;;;;;;;;;;5110786;28;20044;-64
2022/11/27 15:08:21;;;;;;;2.05;0.45;;;;;;;;;;5047688;28;20041;-64
2022/11/27 15:10:54;;;;;;;0.93;0.30;;;;;;;;;;4998083;28;20049;-63
2022/11/27 15:13:34;;;;;;;1.50;0.40;;;;;;;;;;5047254;28;20065;-63
2022/11/27 15:16:25;;;;;;;1.40;0.40;;;;;;;;;;4975179;28;20049;-65
2022/11/27 15:19:02;;;;;;;0.28;0.20;;;;;;;;;;5008109;28;20062;-63
2022/11/27 15:21:37;;;;;;;0.95;0.40;;;;;;;;;;5007869;28;20191;-64
2022/11/27 15:24:31;;;;;;;1.38;0.47;;;;;;;;;;5007876;28;20057;-64
2022/11/27 15:27:31;;;;;;;0.47;0.20;;;;;;;;;;5007948;28;20061;-64
2022/11/27 15:30:11;;;;;;;0.70;0.50;;;;;;;;;;4968473;28;20074;-63
2022/11/27 15:32:54;;;;;;;2.25;1.05;;;;;;;;;;4968742;28;20592;-63
2022/11/27 15:35:32;;;;;;;1.38;0.40;;;;;;;;;;4915525;29;20051;-63
2022/11/27 15:38:10;;;;;;;1.33;0.50;;;;;;;;;;4933049;29;20044;-63
2022/11/27 15:40:41;;;;;;;1.25;0.40;;;;;;;;;;4933958;29;20067;-63